sensor_id;sensor_type;location;lat;lon;timestamp;pressure;altitude;pressure_sealevel;temperature;humidity
48892;BME280;50130;52.150;5.236;2023-01-26T00:01:07;102357.0;;;1.94;96.45
48892;BME280;50130;52.150;5.236;2023-01-26T00:02:43;102359.0;;;1.9;96.39
48892;BME280;50130;52.150;5.236;2023-01-26T00:05:56;102369.0;;;1.96;96.26
48892;BME280;50130;52.150;5.236;2023-01-26T00:07:33;102360.0;;;1.97;96.0
48892;BME280;50130;52.150;5.236;2023-01-26T00:09:11;102358.0;;;1.76;95.95
48892;BME280;50130;52.150;5.236;2023-01-26T00:12:25;102358.0;;;1.79;96.5
48892;BME280;50130;52.150;5.236;2023-01-26T00:14:02;102355.0;;;1.85;96.33
48892;BME280;50130;52.150;5.236;2023-01-26T00:15:38;102347.0;;;1.87;96.33
48892;BME280;50130;52.150;5.236;2023-01-26T00:17:24;102346.0;;;2.08;95.91
48892;BME280;50130;52.150;5.236;2023-01-26T00:20:37;102346.0;;;1.88;96.61
48892;BME280;50130;52.150;5.236;2023-01-26T00:22:13;102343.0;;;2.04;96.25
48892;BME280;50130;52.150;5.236;2023-01-26T00:23:50;102344.0;;;1.98;96.09
48892;BME280;50130;52.150;5.236;2023-01-26T00:27:03;102343.0;;;1.95;96.21
48892;BME280;50130;52.150;5.236;2023-01-26T00:28:39;102343.0;;;1.79;96.96
48892;BME280;50130;52.150;5.236;2023-01-26T00:30:16;102340.0;;;1.9;96.38
48892;BME280;50130;52.150;5.236;2023-01-26T00:31:52;102336.0;;;2.02;95.95
48892;BME280;50130;52.150;5.236;2023-01-26T00:35:05;102331.0;;;1.97;96.22
48892;BME280;50130;52.150;5.236;2023-01-26T00:36:42;102326.0;;;1.94;96.26
48892;BME280;50130;52.150;5.236;2023-01-26T00:38:18;102325.0;;;1.91;96.51
48892;BME280;50130;52.150;5.236;2023-01-26T00:42:34;102324.0;;;1.86;96.95
48892;BME280;50130;52.150;5.236;2023-01-26T00:44:11;102320.0;;;1.93;96.72
48892;BME280;50130;52.150;5.236;2023-01-26T00:45:47;102323.0;;;2.06;95.9
48892;BME280;50130;52.150;5.236;2023-01-26T00:47:23;102325.0;;;1.97;96.16
48892;BME280;50130;52.150;5.236;2023-01-26T00:49:00;102322.0;;;2.0;96.15
48892;BME280;50130;52.150;5.236;2023-01-26T00:52:12;102320.0;;;2.02;96.17
48892;BME280;50130;52.150;5.236;2023-01-26T00:53:49;102317.0;;;2.04;96.6
48892;BME280;50130;52.150;5.236;2023-01-26T00:55:31;102314.0;;;1.98;96.59
48892;BME280;50130;52.150;5.236;2023-01-26T00:57:08;102308.0;;;2.04;96.74
48892;BME280;50130;52.150;5.236;2023-01-26T01:00:21;102309.0;;;1.98;96.7
48892;BME280;50130;52.150;5.236;2023-01-26T01:01:57;102306.0;;;2.05;96.63
48892;BME280;50130;52.150;5.236;2023-01-26T01:03:34;102305.0;;;2.06;96.45
48892;BME280;50130;52.150;5.236;2023-01-26T01:06:47;102303.0;;;2.08;96.61
48892;BME280;50130;52.150;5.236;2023-01-26T01:08:22;102302.0;;;2.15;96.32
48892;BME280;50130;52.150;5.236;2023-01-26T01:09:59;102301.0;;;2.0;96.67
48892;BME280;50130;52.150;5.236;2023-01-26T01:11:36;102300.0;;;1.96;96.66
48892;BME280;50130;52.150;5.236;2023-01-26T01:14:48;102297.0;;;1.82;97.09
48892;BME280;50130;52.150;5.236;2023-01-26T01:16:25;102296.0;;;1.94;97.18
48892;BME280;50130;52.150;5.236;2023-01-26T01:18:00;102299.0;;;2.12;96.53
48892;BME280;50130;52.150;5.236;2023-01-26T01:21:16;102301.0;;;2.07;96.26
48892;BME280;50130;52.150;5.236;2023-01-26T01:22:52;102303.0;;;2.04;96.09
48892;BME280;50130;52.150;5.236;2023-01-26T01:24:28;102300.0;;;2.06;96.51
48892;BME280;50130;52.150;5.236;2023-01-26T01:27:42;102301.0;;;2.08;96.23
48892;BME280;50130;52.150;5.236;2023-01-26T01:29:19;102300.0;;;2.07;96.0
48892;BME280;50130;52.150;5.236;2023-01-26T01:30:55;102300.0;;;2.04;96.27
48892;BME280;50130;52.150;5.236;2023-01-26T01:32:33;102302.0;;;1.98;97.13
48892;BME280;50130;52.150;5.236;2023-01-26T01:35:55;102297.0;;;2.19;96.13
48892;BME280;50130;52.150;5.236;2023-01-26T01:37:32;102296.0;;;2.02;96.73
48892;BME280;50130;52.150;5.236;2023-01-26T01:39:09;102294.0;;;2.05;96.36
48892;BME280;50130;52.150;5.236;2023-01-26T01:42:22;102298.0;;;1.99;96.53
48892;BME280;50130;52.150;5.236;2023-01-26T01:44:17;102295.0;;;1.91;97.01
48892;BME280;50130;52.150;5.236;2023-01-26T01:45:55;102295.0;;;1.82;97.1
48892;BME280;50130;52.150;5.236;2023-01-26T01:47:32;102290.0;;;1.93;96.92
48892;BME280;50130;52.150;5.236;2023-01-26T01:50:56;102295.0;;;1.98;96.59
48892;BME280;50130;52.150;5.236;2023-01-26T01:52:36;102291.0;;;1.87;97.04
48892;BME280;50130;52.150;5.236;2023-01-26T01:54:15;102294.0;;;1.75;97.65
48892;BME280;50130;52.150;5.236;2023-01-26T01:55:57;102294.0;;;1.89;97.17
48892;BME280;50130;52.150;5.236;2023-01-26T01:57:47;102290.0;;;1.92;97.13
48892;BME280;50130;52.150;5.236;2023-01-26T02:01:06;102289.0;;;1.99;96.87
48892;BME280;50130;52.150;5.236;2023-01-26T02:02:44;102289.0;;;1.93;96.85
48892;BME280;50130;52.150;5.236;2023-01-26T02:04:24;102289.0;;;1.89;97.29
48892;BME280;50130;52.150;5.236;2023-01-26T02:06:05;102289.0;;;1.95;97.39
48892;BME280;50130;52.150;5.236;2023-01-26T02:10:18;102288.0;;;2.04;97.08
48892;BME280;50130;52.150;5.236;2023-01-26T02:12:05;102290.0;;;2.0;96.95
48892;BME280;50130;52.150;5.236;2023-01-26T02:13:46;102288.0;;;2.02;96.61
48892;BME280;50130;52.150;5.236;2023-01-26T02:15:23;102284.0;;;2.02;96.21
48892;BME280;50130;52.150;5.236;2023-01-26T02:16:59;102286.0;;;1.99;96.35
48892;BME280;50130;52.150;5.236;2023-01-26T02:18:36;102282.0;;;1.84;97.0
48892;BME280;50130;52.150;5.236;2023-01-26T02:22:04;102281.0;;;2.0;96.62
48892;BME280;50130;52.150;5.236;2023-01-26T02:23:55;102278.0;;;1.98;96.27
48892;BME280;50130;52.150;5.236;2023-01-26T02:25:39;102285.0;;;1.87;96.32
48892;BME280;50130;52.150;5.236;2023-01-26T02:27:22;102288.0;;;1.94;96.34
48892;BME280;50130;52.150;5.236;2023-01-26T02:28:59;102291.0;;;1.87;96.97
48892;BME280;50130;52.150;5.236;2023-01-26T02:32:13;102291.0;;;1.83;97.11
48892;BME280;50130;52.150;5.236;2023-01-26T02:33:50;102292.0;;;1.83;97.39
48892;BME280;50130;52.150;5.236;2023-01-26T02:35:26;102286.0;;;1.86;97.61
48892;BME280;50130;52.150;5.236;2023-01-26T02:38:40;102292.0;;;1.85;97.12
48892;BME280;50130;52.150;5.236;2023-01-26T02:40:24;102288.0;;;1.84;97.61
48892;BME280;50130;52.150;5.236;2023-01-26T02:42:43;102290.0;;;1.84;97.75
48892;BME280;50130;52.150;5.236;2023-01-26T02:44:19;102286.0;;;1.89;98.03
48892;BME280;50130;52.150;5.236;2023-01-26T02:45:57;102287.0;;;1.79;97.98
48892;BME280;50130;52.150;5.236;2023-01-26T02:50:14;102283.0;;;1.86;98.37
48892;BME280;50130;52.150;5.236;2023-01-26T02:51:50;102283.0;;;1.83;98.19
48892;BME280;50130;52.150;5.236;2023-01-26T02:53:29;102291.0;;;1.86;97.81
48892;BME280;50130;52.150;5.236;2023-01-26T02:55:36;102291.0;;;2.04;97.62
48892;BME280;50130;52.150;5.236;2023-01-26T02:57:13;102292.0;;;2.02;97.45
48892;BME280;50130;52.150;5.236;2023-01-26T02:58:49;102294.0;;;2.13;97.2
48892;BME280;50130;52.150;5.236;2023-01-26T03:00:27;102303.0;;;1.97;97.57
48892;BME280;50130;52.150;5.236;2023-01-26T03:03:41;102299.0;;;1.98;97.69
48892;BME280;50130;52.150;5.236;2023-01-26T03:05:18;102305.0;;;2.04;97.77
48892;BME280;50130;52.150;5.236;2023-01-26T03:06:54;102300.0;;;2.02;97.59
48892;BME280;50130;52.150;5.236;2023-01-26T03:10:08;102299.0;;;2.19;97.28
48892;BME280;50130;52.150;5.236;2023-01-26T03:11:45;102302.0;;;2.14;97.12
48892;BME280;50130;52.150;5.236;2023-01-26T03:13:21;102299.0;;;2.1;97.33
48892;BME280;50130;52.150;5.236;2023-01-26T03:16:06;102308.0;;;2.19;97.28
48892;BME280;50130;52.150;5.236;2023-01-26T03:17:44;102298.0;;;2.25;97.35
48892;BME280;50130;52.150;5.236;2023-01-26T03:27:33;102292.0;;;2.04;97.48
48892;BME280;50130;52.150;5.236;2023-01-26T03:29:12;102287.0;;;2.16;97.16
48892;BME280;50130;52.150;5.236;2023-01-26T03:30:50;102293.0;;;1.97;98.05
48892;BME280;50130;52.150;5.236;2023-01-26T03:32:27;102291.0;;;1.87;98.74
48892;BME280;50130;52.150;5.236;2023-01-26T03:34:03;102290.0;;;1.94;98.69
48892;BME280;50130;52.150;5.236;2023-01-26T03:37:21;102294.0;;;1.96;98.69
48892;BME280;50130;52.150;5.236;2023-01-26T03:38:57;102292.0;;;1.97;98.6
48892;BME280;50130;52.150;5.236;2023-01-26T03:56:34;102290.0;;;2.17;98.04
48892;BME280;50130;52.150;5.236;2023-01-26T03:58:10;102291.0;;;2.19;98.1
48892;BME280;50130;52.150;5.236;2023-01-26T03:59:46;102292.0;;;2.05;98.41
48892;BME280;50130;52.150;5.236;2023-01-26T04:01:26;102285.0;;;2.19;98.22
48892;BME280;50130;52.150;5.236;2023-01-26T04:08:29;102290.0;;;2.14;98.18
48892;BME280;50130;52.150;5.236;2023-01-26T04:10:07;102300.0;;;1.99;98.91
48892;BME280;50130;52.150;5.236;2023-01-26T04:11:43;102294.0;;;2.25;98.71
48892;BME280;50130;52.150;5.236;2023-01-26T04:21:29;102303.0;;;2.15;98.13
48892;BME280;50130;52.150;5.236;2023-01-26T04:23:06;102299.0;;;2.36;97.57
48892;BME280;50130;52.150;5.236;2023-01-26T04:24:42;102298.0;;;2.21;98.13
48892;BME280;50130;52.150;5.236;2023-01-26T04:26:18;102290.0;;;2.19;98.08
48892;BME280;50130;52.150;5.236;2023-01-26T04:29:30;102295.0;;;2.15;98.16
48892;BME280;50130;52.150;5.236;2023-01-26T04:31:07;102294.0;;;2.15;98.45
48892;BME280;50130;52.150;5.236;2023-01-26T04:32:45;102296.0;;;2.1;98.75
48892;BME280;50130;52.150;5.236;2023-01-26T04:36:02;102291.0;;;2.08;99.0
48892;BME280;50130;52.150;5.236;2023-01-26T04:37:39;102292.0;;;2.17;99.06
48892;BME280;50130;52.150;5.236;2023-01-26T04:39:14;102290.0;;;2.16;98.55
48892;BME280;50130;52.150;5.236;2023-01-26T04:40:52;102284.0;;;2.13;99.09
48892;BME280;50130;52.150;5.236;2023-01-26T04:44:05;102287.0;;;2.11;99.17
48892;BME280;50130;52.150;5.236;2023-01-26T04:45:41;102286.0;;;2.11;99.15
48892;BME280;50130;52.150;5.236;2023-01-26T04:47:17;102285.0;;;2.15;99.19
48892;BME280;50130;52.150;5.236;2023-01-26T04:50:30;102288.0;;;2.21;99.07
48892;BME280;50130;52.150;5.236;2023-01-26T04:52:07;102283.0;;;2.11;99.14
48892;BME280;50130;52.150;5.236;2023-01-26T04:53:43;102285.0;;;2.19;99.21
48892;BME280;50130;52.150;5.236;2023-01-26T04:56:55;102287.0;;;2.23;99.07
48892;BME280;50130;52.150;5.236;2023-01-26T04:58:32;102282.0;;;2.48;98.42
48892;BME280;50130;52.150;5.236;2023-01-26T05:00:10;102287.0;;;2.33;98.16
48892;BME280;50130;52.150;5.236;2023-01-26T05:01:47;102282.0;;;2.38;98.4
48892;BME280;50130;52.150;5.236;2023-01-26T05:05:02;102282.0;;;2.27;98.7
48892;BME280;50130;52.150;5.236;2023-01-26T05:06:41;102280.0;;;2.15;99.12
48892;BME280;50130;52.150;5.236;2023-01-26T05:08:18;102278.0;;;2.29;99.13
48892;BME280;50130;52.150;5.236;2023-01-26T05:11:32;102278.0;;;2.23;99.13
48892;BME280;50130;52.150;5.236;2023-01-26T05:13:09;102268.0;;;2.21;99.13
48892;BME280;50130;52.150;5.236;2023-01-26T05:14:46;102265.0;;;2.21;99.31
48892;BME280;50130;52.150;5.236;2023-01-26T05:16:22;102265.0;;;2.16;99.45
48892;BME280;50130;52.150;5.236;2023-01-26T05:19:36;102262.0;;;2.41;98.94
48892;BME280;50130;52.150;5.236;2023-01-26T05:21:12;102264.0;;;2.12;99.29
48892;BME280;50130;52.150;5.236;2023-01-26T05:22:48;102258.0;;;2.23;99.44
48892;BME280;50130;52.150;5.236;2023-01-26T05:26:01;102263.0;;;2.19;99.6
48892;BME280;50130;52.150;5.236;2023-01-26T05:27:38;102260.0;;;2.21;99.42
48892;BME280;50130;52.150;5.236;2023-01-26T05:29:14;102261.0;;;2.15;99.67
48892;BME280;50130;52.150;5.236;2023-01-26T05:32:27;102261.0;;;2.15;99.89
48892;BME280;50130;52.150;5.236;2023-01-26T05:34:04;102266.0;;;2.21;99.72
48892;BME280;50130;52.150;5.236;2023-01-26T05:35:41;102270.0;;;2.29;99.56
48892;BME280;50130;52.150;5.236;2023-01-26T05:37:17;102273.0;;;2.23;99.63
48892;BME280;50130;52.150;5.236;2023-01-26T05:40:29;102268.0;;;2.27;99.64
48892;BME280;50130;52.150;5.236;2023-01-26T05:42:05;102267.0;;;2.19;99.71
48892;BME280;50130;52.150;5.236;2023-01-26T05:43:41;102272.0;;;2.25;99.97
48892;BME280;50130;52.150;5.236;2023-01-26T05:46:55;102277.0;;;2.19;99.77
48892;BME280;50130;52.150;5.236;2023-01-26T05:48:32;102277.0;;;2.29;99.52
48892;BME280;50130;52.150;5.236;2023-01-26T05:50:09;102280.0;;;2.27;99.69
48892;BME280;50130;52.150;5.236;2023-01-26T05:53:22;102273.0;;;2.29;99.55
48892;BME280;50130;52.150;5.236;2023-01-26T05:55:00;102277.0;;;2.27;99.16
48892;BME280;50130;52.150;5.236;2023-01-26T05:56:36;102281.0;;;2.23;99.73
48892;BME280;50130;52.150;5.236;2023-01-26T05:58:13;102280.0;;;2.31;99.26
48892;BME280;50130;52.150;5.236;2023-01-26T06:01:26;102280.0;;;2.29;99.5
48892;BME280;50130;52.150;5.236;2023-01-26T06:03:03;102284.0;;;2.27;99.91
48892;BME280;50130;52.150;5.236;2023-01-26T06:04:39;102284.0;;;2.27;99.87
48892;BME280;50130;52.150;5.236;2023-01-26T06:07:52;102285.0;;;2.29;99.65
48892;BME280;50130;52.150;5.236;2023-01-26T06:09:28;102285.0;;;2.41;99.15
48892;BME280;50130;52.150;5.236;2023-01-26T06:11:04;102280.0;;;2.38;99.36
48892;BME280;50130;52.150;5.236;2023-01-26T06:14:18;102292.0;;;2.32;99.36
48892;BME280;50130;52.150;5.236;2023-01-26T06:15:54;102290.0;;;2.29;99.71
48892;BME280;50130;52.150;5.236;2023-01-26T06:17:30;102293.0;;;2.29;99.7
48892;BME280;50130;52.150;5.236;2023-01-26T06:19:08;102291.0;;;2.29;99.79
48892;BME280;50130;52.150;5.236;2023-01-26T06:22:21;102293.0;;;2.29;99.79
48892;BME280;50130;52.150;5.236;2023-01-26T06:23:57;102292.0;;;2.52;99.41
48892;BME280;50130;52.150;5.236;2023-01-26T06:25:34;102287.0;;;2.46;99.14
48892;BME280;50130;52.150;5.236;2023-01-26T06:28:49;102294.0;;;2.41;99.5
48892;BME280;50130;52.150;5.236;2023-01-26T06:30:26;102294.0;;;2.32;99.66
48892;BME280;50130;52.150;5.236;2023-01-26T06:32:03;102302.0;;;2.21;99.97
48892;BME280;50130;52.150;5.236;2023-01-26T06:35:15;102297.0;;;2.21;100.0
48892;BME280;50130;52.150;5.236;2023-01-26T06:36:51;102298.0;;;2.23;100.0
48892;BME280;50130;52.150;5.236;2023-01-26T06:38:27;102303.0;;;2.27;100.0
48892;BME280;50130;52.150;5.236;2023-01-26T06:40:05;102297.0;;;2.33;100.0
48892;BME280;50130;52.150;5.236;2023-01-26T06:43:19;102305.0;;;2.35;100.0
48892;BME280;50130;52.150;5.236;2023-01-26T06:44:56;102305.0;;;2.35;99.99
48892;BME280;50130;52.150;5.236;2023-01-26T06:46:34;102306.0;;;2.54;99.54
48892;BME280;50130;52.150;5.236;2023-01-26T06:49:46;102316.0;;;2.44;99.69
48892;BME280;50130;52.150;5.236;2023-01-26T06:51:42;102313.0;;;2.5;99.35
48892;BME280;50130;52.150;5.236;2023-01-26T06:53:33;102319.0;;;2.54;99.35
48892;BME280;50130;52.150;5.236;2023-01-26T06:55:16;102314.0;;;2.5;99.65
48892;BME280;50130;52.150;5.236;2023-01-26T06:56:54;102310.0;;;2.68;98.76
48892;BME280;50130;52.150;5.236;2023-01-26T07:00:08;102320.0;;;2.52;99.19
48892;BME280;50130;52.150;5.236;2023-01-26T07:01:47;102320.0;;;2.46;99.44
48892;BME280;50130;52.150;5.236;2023-01-26T07:03:24;102317.0;;;2.44;99.62
48892;BME280;50130;52.150;5.236;2023-01-26T07:06:37;102319.0;;;2.39;99.78
48892;BME280;50130;52.150;5.236;2023-01-26T07:08:13;102318.0;;;2.59;99.27
48892;BME280;50130;52.150;5.236;2023-01-26T07:09:49;102318.0;;;2.66;98.46
48892;BME280;50130;52.150;5.236;2023-01-26T07:11:26;102320.0;;;2.61;98.7
48892;BME280;50130;52.150;5.236;2023-01-26T07:14:39;102318.0;;;2.73;98.37
48892;BME280;50130;52.150;5.236;2023-01-26T07:16:16;102326.0;;;2.75;98.21
48892;BME280;50130;52.150;5.236;2023-01-26T07:17:55;102323.0;;;2.72;98.36
48892;BME280;50130;52.150;5.236;2023-01-26T07:21:10;102331.0;;;2.56;98.57
48892;BME280;50130;52.150;5.236;2023-01-26T07:22:49;102331.0;;;2.5;99.05
48892;BME280;50130;52.150;5.236;2023-01-26T07:24:26;102336.0;;;2.44;99.51
48892;BME280;50130;52.150;5.236;2023-01-26T07:26:04;102337.0;;;2.52;99.77
48892;BME280;50130;52.150;5.236;2023-01-26T07:29:16;102338.0;;;2.67;99.13
48892;BME280;50130;52.150;5.236;2023-01-26T07:30:56;102340.0;;;2.52;99.43
48892;BME280;50130;52.150;5.236;2023-01-26T07:32:33;102343.0;;;2.63;99.46
48892;BME280;50130;52.150;5.236;2023-01-26T07:35:46;102340.0;;;2.79;98.91
48892;BME280;50130;52.150;5.236;2023-01-26T07:37:26;102348.0;;;2.72;98.47
48892;BME280;50130;52.150;5.236;2023-01-26T07:40:39;102343.0;;;2.78;98.75
48892;BME280;50130;52.150;5.236;2023-01-26T07:43:52;102349.0;;;2.71;98.76
48892;BME280;50130;52.150;5.236;2023-01-26T07:45:28;102351.0;;;2.8;98.06
48892;BME280;50130;52.150;5.236;2023-01-26T07:47:04;102348.0;;;2.71;98.64
48892;BME280;50130;52.150;5.236;2023-01-26T07:50:17;102348.0;;;2.75;98.34
48892;BME280;50130;52.150;5.236;2023-01-26T07:51:53;102353.0;;;2.59;99.12
48892;BME280;50130;52.150;5.236;2023-01-26T07:53:30;102353.0;;;2.56;99.46
48892;BME280;50130;52.150;5.236;2023-01-26T07:56:43;102352.0;;;2.71;99.39
48892;BME280;50130;52.150;5.236;2023-01-26T07:58:20;102351.0;;;2.8;98.64
48892;BME280;50130;52.150;5.236;2023-01-26T07:59:56;102356.0;;;2.75;98.44
48892;BME280;50130;52.150;5.236;2023-01-26T08:03:09;102356.0;;;2.87;98.08
48892;BME280;50130;52.150;5.236;2023-01-26T08:04:45;102357.0;;;2.82;97.9
48892;BME280;50130;52.150;5.236;2023-01-26T08:06:21;102360.0;;;2.77;98.08
48892;BME280;50130;52.150;5.236;2023-01-26T08:08:00;102355.0;;;2.78;98.32
48892;BME280;50130;52.150;5.236;2023-01-26T08:11:13;102360.0;;;2.78;98.06
48892;BME280;50130;52.150;5.236;2023-01-26T08:12:49;102356.0;;;2.77;98.06
48892;BME280;50130;52.150;5.236;2023-01-26T08:14:25;102359.0;;;2.85;97.9
48892;BME280;50130;52.150;5.236;2023-01-26T08:17:40;102361.0;;;2.87;97.83
48892;BME280;50130;52.150;5.236;2023-01-26T08:19:16;102361.0;;;2.77;97.74
48892;BME280;50130;52.150;5.236;2023-01-26T08:20:53;102362.0;;;2.75;98.03
48892;BME280;50130;52.150;5.236;2023-01-26T08:22:30;102371.0;;;2.8;98.0
48892;BME280;50130;52.150;5.236;2023-01-26T08:25:46;102362.0;;;2.84;97.9
48892;BME280;50130;52.150;5.236;2023-01-26T08:28:59;102358.0;;;3.0;97.71
48892;BME280;50130;52.150;5.236;2023-01-26T08:32:13;102363.0;;;3.01;96.99
48892;BME280;50130;52.150;5.236;2023-01-26T08:33:50;102361.0;;;3.06;96.64
48892;BME280;50130;52.150;5.236;2023-01-26T08:35:27;102359.0;;;3.04;96.5
48892;BME280;50130;52.150;5.236;2023-01-26T08:38:41;102362.0;;;2.92;97.3
48892;BME280;50130;52.150;5.236;2023-01-26T08:40:19;102367.0;;;3.08;96.85
48892;BME280;50130;52.150;5.236;2023-01-26T08:41:55;102368.0;;;2.94;97.52
48892;BME280;50130;52.150;5.236;2023-01-26T08:43:31;102368.0;;;2.72;98.41
48892;BME280;50130;52.150;5.236;2023-01-26T08:46:46;102371.0;;;2.57;99.12
48892;BME280;50130;52.150;5.236;2023-01-26T08:48:22;102380.0;;;2.48;100.0
48892;BME280;50130;52.150;5.236;2023-01-26T08:49:58;102382.0;;;2.58;100.0
48892;BME280;50130;52.150;5.236;2023-01-26T08:53:11;102377.0;;;2.66;100.0
48892;BME280;50130;52.150;5.236;2023-01-26T08:54:48;102374.0;;;2.96;99.96
48892;BME280;50130;52.150;5.236;2023-01-26T08:56:24;102376.0;;;3.09;99.66
48892;BME280;50130;52.150;5.236;2023-01-26T08:59:37;102377.0;;;3.09;99.67
48892;BME280;50130;52.150;5.236;2023-01-26T09:01:15;102380.0;;;3.18;99.71
48892;BME280;50130;52.150;5.236;2023-01-26T09:02:57;102378.0;;;3.36;99.45
48892;BME280;50130;52.150;5.236;2023-01-26T09:04:34;102380.0;;;3.38;99.48
48892;BME280;50130;52.150;5.236;2023-01-26T09:07:48;102385.0;;;3.43;99.5
48892;BME280;50130;52.150;5.236;2023-01-26T09:09:24;102385.0;;;3.53;99.3
48892;BME280;50130;52.150;5.236;2023-01-26T09:11:01;102389.0;;;3.59;99.35
48892;BME280;50130;52.150;5.236;2023-01-26T09:14:16;102392.0;;;3.7;99.7
48892;BME280;50130;52.150;5.236;2023-01-26T09:15:53;102393.0;;;3.98;99.68
48892;BME280;50130;52.150;5.236;2023-01-26T09:17:29;102388.0;;;4.12;99.92
48892;BME280;50130;52.150;5.236;2023-01-26T09:19:06;102388.0;;;4.28;100.0
48892;BME280;50130;52.150;5.236;2023-01-26T09:22:19;102390.0;;;4.21;99.8
48892;BME280;50130;52.150;5.236;2023-01-26T09:23:55;102384.0;;;4.43;99.79
48892;BME280;50130;52.150;5.236;2023-01-26T09:25:35;102391.0;;;4.37;99.4
48892;BME280;50130;52.150;5.236;2023-01-26T09:28:49;102398.0;;;4.36;99.87
48892;BME280;50130;52.150;5.236;2023-01-26T09:30:26;102398.0;;;4.45;100.0
48892;BME280;50130;52.150;5.236;2023-01-26T09:32:02;102401.0;;;4.59;100.0
48892;BME280;50130;52.150;5.236;2023-01-26T09:33:38;102405.0;;;4.61;100.0
48892;BME280;50130;52.150;5.236;2023-01-26T09:36:51;102402.0;;;4.78;100.0
48892;BME280;50130;52.150;5.236;2023-01-26T09:38:26;102404.0;;;5.08;100.0
48892;BME280;50130;52.150;5.236;2023-01-26T09:40:04;102408.99999999999;;;5.29;100.0
48892;BME280;50130;52.150;5.236;2023-01-26T09:43:42;102414.00000000001;;;5.54;100.0
48892;BME280;50130;52.150;5.236;2023-01-26T09:45:26;102418.0;;;5.73;100.0
48892;BME280;50130;52.150;5.236;2023-01-26T09:47:13;102415.00000000001;;;5.95;100.0
48892;BME280;50130;52.150;5.236;2023-01-26T09:49:00;102418.0;;;6.11;100.0
48892;BME280;50130;52.150;5.236;2023-01-26T09:50:44;102424.0;;;6.27;100.0
48892;BME280;50130;52.150;5.236;2023-01-26T09:52:28;102422.0;;;6.38;100.0
48892;BME280;50130;52.150;5.236;2023-01-26T09:56:11;102419.0;;;6.58;100.0
48892;BME280;50130;52.150;5.236;2023-01-26T09:57:53;102417.0;;;6.61;100.0
48892;BME280;50130;52.150;5.236;2023-01-26T09:59:39;102420.0;;;6.73;100.0
48892;BME280;50130;52.150;5.236;2023-01-26T10:01:28;102423.0;;;6.77;100.0
48892;BME280;50130;52.150;5.236;2023-01-26T10:03:15;102419.0;;;6.76;100.0
48892;BME280;50130;52.150;5.236;2023-01-26T10:06:37;102419.0;;;6.86;100.0
48892;BME280;50130;52.150;5.236;2023-01-26T10:08:15;102422.0;;;6.87;100.0
48892;BME280;50130;52.150;5.236;2023-01-26T10:09:55;102425.0;;;6.95;100.0
48892;BME280;50130;52.150;5.236;2023-01-26T10:11:35;102430.0;;;7.07;100.0
48892;BME280;50130;52.150;5.236;2023-01-26T10:14:57;102431.0;;;7.06;100.0
48892;BME280;50130;52.150;5.236;2023-01-26T10:16:36;102432.0;;;7.27;100.0
48892;BME280;50130;52.150;5.236;2023-01-26T10:18:17;102428.0;;;7.26;99.67
48892;BME280;50130;52.150;5.236;2023-01-26T10:23:25;102428.0;;;7.13;100.0
48892;BME280;50130;52.150;5.236;2023-01-26T10:25:12;102426.0;;;7.16;99.64
48892;BME280;50130;52.150;5.236;2023-01-26T10:28:33;102424.0;;;7.22;98.3
48892;BME280;50130;52.150;5.236;2023-01-26T10:30:13;102423.0;;;7.23;98.62
48892;BME280;50130;52.150;5.236;2023-01-26T10:33:31;102420.0;;;7.06;99.74
48892;BME280;50130;52.150;5.236;2023-01-26T10:35:14;102418.0;;;7.1;99.42
48892;BME280;50130;52.150;5.236;2023-01-26T10:36:57;102421.0;;;7.29;99.18
48892;BME280;50130;52.150;5.236;2023-01-26T10:38:51;102423.0;;;7.35;98.84
48892;BME280;50130;52.150;5.236;2023-01-26T10:42:04;102422.0;;;7.32;99.33
48892;BME280;50130;52.150;5.236;2023-01-26T10:43:41;102427.0;;;7.38;99.07
48892;BME280;50130;52.150;5.236;2023-01-26T10:45:28;102421.0;;;7.52;98.82
48892;BME280;50130;52.150;5.236;2023-01-26T10:47:15;102429.0;;;7.55;98.89
48892;BME280;50130;52.150;5.236;2023-01-26T10:50:33;102434.99999999999;;;7.66;98.64
48892;BME280;50130;52.150;5.236;2023-01-26T10:52:15;102436.99999999999;;;7.7;98.59
48892;BME280;50130;52.150;5.236;2023-01-26T10:54:27;102432.0;;;7.62;99.29
48892;BME280;50130;52.150;5.236;2023-01-26T10:56:05;102439.00000000001;;;7.77;98.86
48892;BME280;50130;52.150;5.236;2023-01-26T10:57:46;102436.99999999999;;;7.82;98.67
48892;BME280;50130;52.150;5.236;2023-01-26T10:59:27;102442.0;;;7.84;98.27
48892;BME280;50130;52.150;5.236;2023-01-26T11:02:51;102436.99999999999;;;7.92;98.04
48892;BME280;50130;52.150;5.236;2023-01-26T11:04:29;102434.99999999999;;;7.9;98.41
48892;BME280;50130;52.150;5.236;2023-01-26T11:06:10;102438.00000000001;;;7.9;98.45
48892;BME280;50130;52.150;5.236;2023-01-26T11:07:49;102438.00000000001;;;8.03;97.71
48892;BME280;50130;52.150;5.236;2023-01-26T11:11:22;102434.99999999999;;;7.94;96.65
48892;BME280;50130;52.150;5.236;2023-01-26T11:13:11;102436.99999999999;;;8.06;96.22
48892;BME280;50130;52.150;5.236;2023-01-26T11:15:00;102436.99999999999;;;8.14;96.48
48892;BME280;50130;52.150;5.236;2023-01-26T11:16:44;102433.99999999999;;;8.15;96.37
48892;BME280;50130;52.150;5.236;2023-01-26T11:18:34;102429.0;;;8.38;95.91
48892;BME280;50130;52.150;5.236;2023-01-26T11:22:46;102426.0;;;8.39;94.89
48892;BME280;50130;52.150;5.236;2023-01-26T11:24:33;102424.0;;;8.33;95.96
48892;BME280;50130;52.150;5.236;2023-01-26T11:29:57;102428.0;;;8.41;95.32
48892;BME280;50130;52.150;5.236;2023-01-26T11:32:50;102424.0;;;8.48;94.62
48892;BME280;50130;52.150;5.236;2023-01-26T11:34:38;102423.0;;;8.39;93.88
48892;BME280;50130;52.150;5.236;2023-01-26T11:36:29;102425.0;;;8.33;92.46
48892;BME280;50130;52.150;5.236;2023-01-26T11:38:20;102427.0;;;8.27;92.97
48892;BME280;50130;52.150;5.236;2023-01-26T11:40:17;102426.0;;;8.42;92.21
48892;BME280;50130;52.150;5.236;2023-01-26T11:42:06;102422.0;;;8.3;91.39
48892;BME280;50130;52.150;5.236;2023-01-26T11:44:14;102419.0;;;8.42;91.19
48892;BME280;50130;52.150;5.236;2023-01-26T11:46:33;102417.0;;;8.31;91.84
48892;BME280;50130;52.150;5.236;2023-01-26T11:48:25;102424.0;;;8.31;91.36
48892;BME280;50130;52.150;5.236;2023-01-26T11:50:19;102426.0;;;8.39;91.92
48892;BME280;50130;52.150;5.236;2023-01-26T11:52:08;102425.0;;;8.53;92.14
48892;BME280;50130;52.150;5.236;2023-01-26T11:54:05;102426.0;;;8.77;91.44